Time;durP1;ratioP1;P1;durP2;ratioP2;P2;SDS_P1;SDS_P2;PMS_P1;PMS_P2;Temp;Humidity;BMP_temperature;BMP_pressure;BME280_temperature;BME280_humidity;BME280_pressure;Samples;Min_cycle;Max_cycle;Signal;HPM_P1;HPM_P2
2022/09/20 00:03:57;;;;;;;17.10;12.50;;;;;;;11.19;78.70;98713.14;225074;1248;126127;-55
2022/09/20 00:09:01;;;;;;;21.20;14.10;;;;;;;11.22;78.92;98714.65;225088;1248;139559;-55
2022/09/20 00:14:07;;;;;;;19.80;15.00;;;;;;;11.25;78.67;98719.45;225085;1244;138797;-56
2022/09/20 00:19:17;;;;;;;22.80;16.70;;;;;;;11.28;78.36;98721.86;225926;1238;142255;-55
2022/09/20 00:24:20;;;;;;;21.70;15.30;;;;;;;11.27;78.94;98726.18;224962;1246;139698;-54
2022/09/20 00:29:24;;;;;;;18.40;14.20;;;;;;;11.30;78.59;98729.01;224909;1246;139936;-56
2022/09/20 00:39:48;;;;;;;20.10;16.30;;;;;;;11.40;78.01;98729.74;225887;1238;139225;-56
2022/09/20 00:44:57;;;;;;;23.70;16.80;;;;;;;11.40;78.44;98729.74;225774;1247;139135;-56
2022/09/20 00:50:34;;;;;;;22.50;16.40;;;;;;;11.41;78.37;98728.45;225586;1246;138914;-56
2022/09/20 00:55:40;;;;;;;19.90;15.70;;;;;;;11.39;78.51;98731.95;225578;1230;140137;-56
2022/09/20 01:00:45;;;;;;;18.50;14.80;;;;;;;11.43;78.24;98729.37;226764;1238;140204;-56
2022/09/20 01:05:53;;;;;;;20.30;16.50;;;;;;;11.50;78.00;98727.94;226892;1238;139740;-56
2022/09/20 01:10:55;;;;;;;20.20;15.40;;;;;;;11.52;77.97;98729.23;226796;1236;139060;-57
2022/09/20 01:16:01;;;;;;;21.40;16.40;;;;;;;11.50;78.01;98729.73;226812;1242;139333;-57
2022/09/20 01:21:05;;;;;;;20.60;15.80;;;;;;;11.48;78.30;98727.05;226850;1241;139095;-56
2022/09/20 01:26:33;;;;;;;19.00;15.10;;;;;;;11.44;78.24;98728.05;227018;1240;140960;-56
2022/09/20 01:31:43;;;;;;;18.90;15.10;;;;;;;11.43;78.50;98727.07;226978;1237;140463;-55
2022/09/20 01:37:13;;;;;;;18.00;14.80;;;;;;;11.45;78.55;98725.64;227145;1238;140455;-57
2022/09/20 01:42:15;;;;;;;18.90;15.10;;;;;;;11.53;78.37;98729.54;226815;1239;138875;-56
2022/09/20 01:47:36;;;;;;;20.70;15.90;;;;;;;11.54;78.15;98727.15;226417;1243;139070;-55
2022/09/20 01:52:39;;;;;;;23.00;15.80;;;;;;;11.52;78.28;98728.54;226454;1243;138682;-56
2022/09/20 01:58:00;;;;;;;19.40;14.70;;;;;;;11.58;78.20;98729.48;227393;1240;140008;-55
2022/09/20 02:03:22;;;;;;;20.90;14.80;;;;;;;11.62;78.25;98730.87;226522;1239;139511;-57
2022/09/20 02:08:37;;;;;;;20.50;15.60;;;;;;;11.64;78.04;98734.67;226178;1233;140472;-55
2022/09/20 02:13:39;;;;;;;22.40;15.90;;;;;;;11.59;78.30;98735.45;227112;1233;139684;-54
2022/09/20 02:18:55;;;;;;;17.00;14.30;;;;;;;11.58;78.18;98737.66;226989;1244;139168;-54
2022/09/20 02:24:23;;;;;;;18.10;13.50;;;;;;;11.57;78.53;98741.66;226748;1233;139733;-54
2022/09/20 02:29:35;;;;;;;16.90;14.10;;;;;;;11.63;78.14;98747.82;226809;1238;139762;-52
2022/09/20 02:34:56;;;;;;;22.40;15.60;;;;;;;11.70;77.87;98751.46;226716;1241;138638;-56
2022/09/20 02:40:23;;;;;;;19.10;15.60;;;;;;;11.71;77.93;98754.94;226460;1241;139225;-56
2022/09/20 02:45:34;;;;;;;18.50;15.90;;;;;;;11.67;77.96;98760.52;226795;1241;139533;-56
2022/09/20 02:51:02;;;;;;;15.40;13.50;;;;;;;11.64;78.22;98760.06;225850;1235;139130;-56
2022/09/20 02:56:16;;;;;;;17.50;13.40;;;;;;;11.63;78.01;98762.77;227648;1236;139934;-56
2022/09/20 03:02:07;;;;;;;19.00;13.90;;;;;;;11.71;77.85;98765.94;227587;1241;139847;-56
2022/09/20 03:07:41;;;;;;;18.40;14.20;;;;;;;11.76;77.61;98769.29;226240;1241;139722;-56
2022/09/20 03:13:03;;;;;;;16.60;13.90;;;;;;;11.78;77.36;98772.55;226427;1233;139318;-55
2022/09/20 03:18:18;;;;;;;15.90;12.90;;;;;;;11.75;77.27;98771.33;227288;1241;140086;-55
2022/09/20 03:23:31;;;;;;;14.50;12.90;;;;;;;11.75;77.41;98768.45;227698;1234;140069;-56
2022/09/20 03:28:52;;;;;;;14.20;12.70;;;;;;;11.79;77.37;98773.71;227228;1241;139964;-56
2022/09/20 03:34:01;;;;;;;16.20;13.60;;;;;;;11.82;77.16;98773.13;227010;1233;138871;-55
2022/09/20 03:39:25;;;;;;;15.40;13.80;;;;;;;11.82;77.00;98773.86;227061;1241;140464;-56
2022/09/20 03:45:05;;;;;;;14.70;12.70;;;;;;;11.74;77.01;98771.77;226369;1235;138897;-58
2022/09/20 03:50:23;;;;;;;13.90;11.60;;;;;;;11.72;77.30;98769.92;226866;1233;140283;-55
2022/09/20 03:55:48;;;;;;;13.80;11.60;;;;;;;11.73;77.34;98780.35;226356;1241;139254;-56
2022/09/20 04:01:04;;;;;;;14.70;13.00;;;;;;;11.67;77.27;98788.77;226303;1240;139101;-56
2022/09/20 04:06:10;;;;;;;15.10;12.50;;;;;;;11.62;77.71;98786.97;227583;1231;140396;-56
2022/09/20 04:11:37;;;;;;;16.30;13.00;;;;;;;11.54;77.65;98794.66;226686;1236;139202;-56
2022/09/20 04:16:48;;;;;;;14.80;11.10;;;;;;;11.59;77.27;98799.79;226187;1240;140572;-56
2022/09/20 04:21:58;;;;;;;13.80;11.60;;;;;;;11.66;77.30;98802.55;226653;1240;139295;-56
2022/09/20 04:27:11;;;;;;;16.10;12.00;;;;;;;11.71;77.06;98803.11;227655;1231;139499;-58
2022/09/20 04:32:18;;;;;;;14.80;12.10;;;;;;;11.68;76.79;98804.20;226732;1241;138949;-57
2022/09/20 04:37:37;;;;;;;13.20;11.00;;;;;;;11.65;76.84;98805.62;226697;1240;139453;-55
2022/09/20 04:43:09;;;;;;;15.40;10.90;;;;;;;11.65;77.01;98809.73;226695;1236;140005;-56
2022/09/20 04:48:43;;;;;;;11.60;10.40;;;;;;;11.68;76.70;98811.79;226828;1234;140802;-57
2022/09/20 04:53:59;;;;;;;12.00;10.80;;;;;;;11.68;76.78;98818.53;226952;1239;139497;-57
2022/09/20 04:59:09;;;;;;;13.20;11.50;;;;;;;11.68;76.62;98826.39;226899;1237;139328;-58
2022/09/20 05:04:23;;;;;;;11.50;10.30;;;;;;;11.62;76.71;98827.14;226883;1244;139602;-57
2022/09/20 05:10:13;;;;;;;10.70;9.60;;;;;;;11.64;76.37;98829.70;226643;1241;139369;-56
2022/09/20 05:15:36;;;;;;;11.20;9.70;;;;;;;11.74;76.43;98837.71;227524;1235;139619;-59
2022/09/20 05:20:58;;;;;;;13.70;11.60;;;;;;;11.75;76.05;98842.27;226590;1240;139716;-57
2022/09/20 05:26:23;;;;;;;14.10;11.10;;;;;;;11.75;75.74;98847.95;226621;1235;139205;-58
2022/09/20 05:31:37;;;;;;;12.80;9.70;;;;;;;11.73;75.93;98852.88;226701;1242;139811;-56
2022/09/20 05:36:56;;;;;;;11.60;9.60;;;;;;;11.71;75.82;98857.83;226588;1248;139122;-57
2022/09/20 05:42:17;;;;;;;11.00;9.40;;;;;;;11.76;75.61;98853.19;227572;1236;139810;-58
2022/09/20 05:47:45;;;;;;;12.80;10.30;;;;;;;11.82;75.10;98858.09;226826;1241;139299;-55
2022/09/20 05:53:02;;;;;;;15.40;11.30;;;;;;;11.84;75.30;98856.92;227048;1237;139249;-57
2022/09/20 05:58:37;;;;;;;12.50;10.10;;;;;;;11.84;75.31;98859.56;226790;1234;160653;-57
2022/09/20 06:03:54;;;;;;;16.10;10.60;;;;;;;11.87;74.98;98863.68;227518;1239;140721;-57
2022/09/20 06:09:15;;;;;;;13.60;11.90;;;;;;;11.91;74.82;98868.02;226555;1240;139764;-56
2022/09/20 06:14:27;;;;;;;16.40;11.10;;;;;;;11.93;75.00;98870.02;227459;1235;139362;-57
2022/09/20 06:19:35;;;;;;;12.80;11.40;;;;;;;11.92;74.91;98875.61;227004;1238;140882;-56
2022/09/20 06:24:57;;;;;;;16.00;11.10;;;;;;;11.88;75.15;98875.48;227491;1235;139139;-56
2022/09/20 06:30:04;;;;;;;13.80;10.00;;;;;;;11.89;75.54;98882.92;226557;1244;141272;-58
2022/09/20 06:35:08;;;;;;;15.10;10.70;;;;;;;11.94;75.39;98887.51;226658;1247;139402;-58
2022/09/20 06:45:50;;;;;;;15.30;12.00;;;;;;;12.02;74.24;98898.48;226783;1234;139498;-57
2022/09/20 06:50:54;;;;;;;18.20;13.20;;;;;;;11.98;74.48;98904.64;226644;1240;139345;-58
2022/09/20 06:55:59;;;;;;;32.20;21.30;;;;;;;11.96;74.67;98908.54;226698;1246;139932;-57
2022/09/20 07:01:02;;;;;;;16.00;12.40;;;;;;;11.98;75.05;98907.88;226694;1242;140312;-57
2022/09/20 07:06:05;;;;;;;20.20;12.30;;;;;;;12.02;74.67;98907.95;226832;1247;139911;-57
2022/09/20 07:11:15;;;;;;;17.10;12.80;;;;;;;12.02;74.59;98916.27;226830;1241;139424;-57
2022/09/20 07:16:19;;;;;;;17.00;13.20;;;;;;;12.03;74.63;98925.99;226754;1235;139697;-55
2022/09/20 07:21:22;;;;;;;19.80;12.90;;;;;;;11.99;74.62;98930.91;226617;1241;140239;-56
2022/09/20 07:26:27;;;;;;;13.80;11.20;;;;;;;12.08;74.70;98938.64;226378;1242;140449;-57
2022/09/20 07:31:31;;;;;;;;;;;;;;;12.17;74.58;98940.66;226361;1240;140557;-56
2022/09/20 07:36:34;;;;;;;17.80;11.20;;;;;;;12.25;74.25;98937.44;226321;1234;126326;-57
2022/09/20 07:41:37;;;;;;;14.70;11.30;;;;;;;12.31;74.00;98939.34;226336;1241;139774;-57
2022/09/20 07:46:39;;;;;;;11.00;8.20;;;;;;;12.38;73.95;98938.98;226388;1249;140084;-56
2022/09/20 07:51:43;;;;;;;8.30;7.00;;;;;;;12.41;73.30;98948.21;226412;1242;139848;-55
2022/09/20 07:56:47;;;;;;;11.70;7.10;;;;;;;12.50;72.41;98948.67;227211;1238;138932;-59
2022/09/20 08:01:50;;;;;;;12.30;6.30;;;;;;;12.57;71.44;98952.26;226346;1241;138933;-56
2022/09/20 08:06:52;;;;;;;10.70;7.00;;;;;;;12.63;71.07;98956.14;226662;1249;139375;-57
2022/09/20 08:11:56;;;;;;;12.10;7.50;;;;;;;12.63;71.24;98962.31;226296;1241;139620;-55
2022/09/20 08:16:59;;;;;;;12.10;7.20;;;;;;;12.65;70.88;98963.61;226475;1241;138843;-56
2022/09/20 08:22:03;;;;;;;8.30;6.60;;;;;;;12.68;71.10;98963.00;226753;1241;140161;-59
2022/09/20 08:27:07;;;;;;;11.40;7.20;;;;;;;12.72;71.08;98965.61;226879;1241;139432;-56
2022/09/20 08:32:11;;;;;;;8.50;6.70;;;;;;;12.80;70.36;98969.25;226866;1235;139435;-56
2022/09/20 08:37:13;;;;;;;9.70;6.40;;;;;;;12.81;69.81;98972.95;226758;1241;139228;-55
2022/09/20 08:42:27;;;;;;;9.60;7.00;;;;;;;12.78;69.95;98972.61;227471;1233;139775;-56
2022/09/20 08:47:55;;;;;;;8.50;5.70;;;;;;;12.74;69.35;98978.97;226745;1240;139117;-57
2022/09/20 08:53:03;;;;;;;9.90;6.70;;;;;;;12.79;69.61;98976.98;226887;1238;140523;-56
2022/09/20 08:58:09;;;;;;;12.70;6.40;;;;;;;12.98;70.09;98978.67;226872;1241;139455;-58
2022/09/20 09:03:15;;;;;;;7.20;5.50;;;;;;;13.14;68.84;98975.15;226525;1233;139493;-56
2022/09/20 09:08:27;;;;;;;9.70;5.90;;;;;;;13.32;67.99;98973.87;226447;1248;138927;-56
2022/09/20 09:13:36;;;;;;;6.10;4.80;;;;;;;13.41;67.27;98973.75;226508;1242;139105;-56
2022/09/20 09:18:42;;;;;;;7.50;5.50;;;;;;;13.34;67.20;98976.59;226472;1241;140477;-56
2022/09/20 09:24:08;;;;;;;9.30;4.30;;;;;;;13.26;68.80;98970.58;226851;1241;138908;-55
2022/09/20 09:29:18;;;;;;;4.20;3.30;;;;;;;13.19;69.00;98961.06;227544;1227;139818;-56
2022/09/20 09:34:26;;;;;;;5.60;2.40;;;;;;;13.20;67.39;98956.77;226673;1241;139102;-56
2022/09/20 09:39:37;;;;;;;5.30;2.90;;;;;;;13.46;68.74;98949.33;226407;1234;140285;-55
2022/09/20 09:44:40;;;;;;;5.30;1.80;;;;;;;13.65;68.30;98946.80;226440;1241;139432;-57
2022/09/20 09:49:58;;;;;;;2.80;2.10;;;;;;;13.70;67.44;98947.84;226579;1238;139530;-57
2022/09/20 09:55:11;;;;;;;3.10;2.10;;;;;;;13.76;67.04;98951.45;226675;1234;139355;-56
2022/09/20 10:00:17;;;;;;;3.20;2.20;;;;;;;13.63;66.33;98960.08;226459;1241;139131;-55
2022/09/20 10:05:31;;;;;;;3.40;1.60;;;;;;;13.33;66.56;98960.45;227396;1234;139091;-58
2022/09/20 10:10:44;;;;;;;2.70;1.60;;;;;;;13.14;67.14;98966.11;226730;1241;139565;-56
2022/09/20 10:16:40;;;;;;;2.50;1.90;;;;;;;13.03;67.56;98965.48;227489;1234;139318;-58
2022/09/20 10:21:55;;;;;;;3.10;2.00;;;;;;;13.00;68.26;98965.48;226307;1238;139865;-55
2022/09/20 10:26:58;;;;;;;;;;;;;;;13.27;69.08;98956.61;226711;1242;139603;-56
2022/09/20 10:32:26;;;;;;;3.40;2.30;;;;;;;13.60;69.42;98947.19;227518;1234;125112;-57
2022/09/20 10:37:49;;;;;;;6.20;2.40;;;;;;;13.93;69.42;98941.98;226725;1241;139172;-57
2022/09/20 10:43:15;;;;;;;3.80;2.10;;;;;;;14.21;69.22;98939.22;226711;1239;141010;-57
2022/09/20 10:48:34;;;;;;;5.30;2.20;;;;;;;14.40;68.78;98946.14;226805;1238;139226;-57
2022/09/20 10:53:40;;;;;;;2.80;2.30;;;;;;;14.48;68.31;98948.55;226725;1237;140552;-58
2022/09/20 10:58:50;;;;;;;3.50;1.90;;;;;;;14.56;68.10;98957.42;226654;1243;140151;-56
2022/09/20 11:04:06;;;;;;;4.80;2.00;;;;;;;14.65;67.89;98953.79;226656;1246;139160;-57
2022/09/20 11:09:13;;;;;;;;;;;;;;;14.58;67.00;98950.80;226748;1241;138915;-57
2022/09/20 11:14:22;;;;;;;3.90;1.90;;;;;;;14.43;66.43;98949.63;227536;1232;125739;-59
2022/09/20 11:19:55;;;;;;;3.20;2.00;;;;;;;14.38;66.24;98945.40;226759;1244;139001;-56
2022/09/20 11:25:19;;;;;;;4.60;2.20;;;;;;;14.38;66.25;98943.39;226671;1233;139527;-57
2022/09/20 11:30:30;;;;;;;2.10;1.80;;;;;;;14.40;65.61;98947.38;226660;1241;138808;-56
2022/09/20 11:35:46;;;;;;;2.40;1.70;;;;;;;14.38;65.51;98945.04;227475;1227;139743;-58
2022/09/20 11:41:06;;;;;;;3.40;2.00;;;;;;;14.41;65.21;98952.46;226705;1247;138781;-56
2022/09/20 11:46:16;;;;;;;2.00;1.60;;;;;;;14.42;65.03;98961.50;226891;1241;138548;-57
2022/09/20 11:51:34;;;;;;;2.40;1.50;;;;;;;14.74;64.93;98960.20;226919;1241;139900;-58
2022/09/20 11:56:37;;;;;;;3.70;1.70;;;;;;;15.10;64.39;98955.16;226564;1241;139540;-57
2022/09/20 12:01:42;;;;;;;2.80;1.40;;;;;;;15.42;64.33;98960.71;226638;1246;139755;-56
2022/09/20 12:06:46;;;;;;;2.60;1.50;;;;;;;15.81;63.76;98958.05;226501;1241;139470;-57
2022/09/20 12:11:51;;;;;;;3.60;1.80;;;;;;;15.95;62.70;98960.20;226458;1249;139384;-58
2022/09/20 12:16:55;;;;;;;2.30;1.60;;;;;;;15.81;62.08;98958.92;226808;1233;139259;-58
2022/09/20 12:21:58;;;;;;;2.10;1.20;;;;;;;15.67;61.66;98955.40;226658;1241;139083;-58
2022/09/20 12:27:19;;;;;;;1.80;1.00;;;;;;;15.57;60.95;98954.66;227463;1227;139459;-58
2022/09/20 12:32:30;;;;;;;1.40;1.00;;;;;;;15.34;60.28;98956.19;227582;1232;139632;-56
2022/09/20 12:37:33;;;;;;;1.50;1.20;;;;;;;15.12;60.34;98952.63;226680;1234;139422;-57
2022/09/20 12:42:36;;;;;;;3.50;1.50;;;;;;;14.98;60.46;98948.14;226784;1242;140028;-58
2022/09/20 12:47:51;;;;;;;5.00;1.40;;;;;;;15.00;60.90;98948.29;226709;1241;139527;-57
2022/09/20 12:52:56;;;;;;;3.20;1.20;;;;;;;15.22;60.71;98943.48;226778;1241;138965;-57
2022/09/20 12:58:02;;;;;;;4.60;1.40;;;;;;;15.59;60.64;98940.54;226668;1240;140734;-59
2022/09/20 13:03:27;;;;;;;3.50;1.20;;;;;;;15.91;60.45;98948.00;226650;1241;140070;-60
2022/09/20 13:08:31;;;;;;;13.70;8.00;;;;;;;15.92;59.50;98963.39;226607;1241;139561;-57
2022/09/20 13:14:08;;;;;;;2.90;1.40;;;;;;;15.62;59.27;98975.34;226674;1240;140089;-59
2022/09/20 13:19:17;;;;;;;1.80;1.30;;;;;;;15.22;59.20;98982.27;226708;1241;141756;-59
2022/09/20 13:24:24;;;;;;;3.00;1.10;;;;;;;14.91;59.73;98980.79;226572;1241;139885;-58
2022/09/20 13:29:39;;;;;;;1.70;1.10;;;;;;;14.80;60.33;98976.00;226462;1239;139965;-57
2022/09/20 13:34:43;;;;;;;1.70;1.30;;;;;;;14.71;60.73;98974.95;226632;1234;138852;-57
2022/09/20 13:39:46;;;;;;;1.30;0.80;;;;;;;14.69;60.53;98972.99;226725;1243;139329;-56
2022/09/20 13:44:50;;;;;;;4.60;1.20;;;;;;;14.81;60.19;98972.35;226720;1241;139230;-57
2022/09/20 13:50:33;;;;;;;1.20;0.80;;;;;;;15.16;60.06;98965.41;226811;1240;139244;-57
2022/09/20 13:55:37;;;;;;;2.80;0.90;;;;;;;15.27;59.37;98962.69;226699;1234;139492;-59
2022/09/20 14:00:48;;;;;;;1.50;0.80;;;;;;;15.19;58.80;98967.67;226531;1240;139399;-56
2022/09/20 14:06:07;;;;;;;1.70;0.90;;;;;;;15.04;58.65;98973.21;227410;1226;139142;-58
2022/09/20 14:11:21;;;;;;;4.00;1.30;;;;;;;14.92;58.70;98968.11;226559;1233;139578;-57
2022/09/20 14:16:30;;;;;;;2.90;1.30;;;;;;;14.91;59.10;98967.44;226661;1233;140257;-57
2022/09/20 14:21:35;;;;;;;2.10;1.40;;;;;;;14.93;59.26;98974.05;226446;1240;139644;-57
2022/09/20 14:26:41;;;;;;;1.90;1.10;;;;;;;14.88;59.60;98973.90;226592;1241;139570;-57
2022/09/20 14:31:46;;;;;;;2.90;1.30;;;;;;;14.88;59.84;98974.85;226996;1235;139283;-57
2022/09/20 14:36:49;;;;;;;;;;;;;;;14.85;60.02;98974.83;226933;1234;138873;-58
2022/09/20 14:41:52;;;;;;;1.70;1.10;;;;;;;14.84;60.15;98977.64;227824;1237;126428;-56
2022/09/20 14:46:56;;;;;;;4.00;2.50;;;;;;;14.81;60.13;98978.95;227065;1242;138560;-59
2022/09/20 14:52:28;;;;;;;3.40;1.80;;;;;;;14.82;60.24;98981.53;226283;1237;140006;-57
2022/09/20 14:57:31;;;;;;;2.00;1.40;;;;;;;14.79;59.89;98989.64;226600;1234;139317;-58
2022/09/20 15:02:35;;;;;;;3.80;1.60;;;;;;;14.73;59.71;98991.19;226767;1241;139339;-58
2022/09/20 15:07:38;;;;;;;5.00;1.90;;;;;;;14.67;59.67;98997.95;226532;1241;139481;-57
2022/09/20 15:12:43;;;;;;;2.80;1.50;;;;;;;14.64;59.82;99005.46;226463;1241;139749;-57
2022/09/20 15:17:46;;;;;;;2.70;1.30;;;;;;;14.59;59.87;99006.64;226316;1241;139583;-58
2022/09/20 15:22:49;;;;;;;3.70;1.50;;;;;;;14.52;60.07;99002.38;226629;1241;139197;-56
2022/09/20 15:27:52;;;;;;;2.60;1.50;;;;;;;14.47;60.37;99004.00;226589;1234;141141;-58
2022/09/20 15:32:55;;;;;;;3.10;1.60;;;;;;;14.41;60.47;99012.64;227398;1234;139021;-59
2022/09/20 15:38:07;;;;;;;4.10;1.70;;;;;;;14.33;60.46;99017.86;226071;1241;139477;-59
2022/09/20 15:43:15;;;;;;;2.60;1.30;;;;;;;14.29;60.62;99023.54;226140;1226;138703;-58
2022/09/20 15:48:21;;;;;;;3.30;1.60;;;;;;;14.25;60.54;99030.27;227288;1225;138995;-60
2022/09/20 15:53:24;;;;;;;3.00;1.60;;;;;;;14.20;60.65;99032.86;226180;1235;139050;-59
2022/09/20 15:58:34;;;;;;;2.00;1.40;;;;;;;14.14;60.81;99035.59;227463;1234;139408;-60
2022/09/20 16:03:38;;;;;;;3.20;1.50;;;;;;;14.10;60.80;99036.60;226671;1241;138988;-58
2022/09/20 16:08:42;;;;;;;7.70;1.70;;;;;;;14.08;60.97;99033.73;226655;1241;139840;-58
2022/09/20 16:13:56;;;;;;;3.80;1.90;;;;;;;14.08;61.17;99039.27;226436;1234;139280;-58
2022/09/20 16:19:19;;;;;;;3.30;2.00;;;;;;;14.10;61.49;99051.77;226599;1233;139777;-59
2022/09/20 16:24:27;;;;;;;2.20;1.50;;;;;;;14.10;61.50;99056.95;226537;1240;139073;-59
2022/09/20 16:29:31;;;;;;;1.60;1.10;;;;;;;14.02;61.07;99055.45;226542;1241;138683;-58
2022/09/20 16:34:35;;;;;;;0.90;0.90;;;;;;;13.90;60.84;99064.20;226787;1233;138859;-59
2022/09/20 16:39:41;;;;;;;2.70;1.20;;;;;;;13.77;60.90;99071.23;226678;1244;139561;-57
2022/09/20 16:44:46;;;;;;;4.30;1.30;;;;;;;13.64;60.78;99076.31;226352;1243;139477;-58
2022/09/20 16:49:50;;;;;;;4.70;1.80;;;;;;;13.52;61.20;99083.58;226553;1241;138561;-59
2022/09/20 16:54:53;;;;;;;7.10;2.10;;;;;;;13.44;61.90;99084.86;226725;1241;142102;-57
2022/09/20 16:59:56;;;;;;;5.40;2.60;;;;;;;13.39;62.28;99104.68;226730;1241;138735;-58
2022/09/20 17:04:59;;;;;;;3.90;2.20;;;;;;;13.32;62.75;99114.64;226223;1233;141049;-58
2022/09/20 17:10:03;;;;;;;8.00;3.30;;;;;;;13.30;62.98;99130.48;226110;1233;140443;-57
2022/09/20 17:15:12;;;;;;;7.60;3.10;;;;;;;13.29;63.31;99139.10;226536;1241;141920;-58
2022/09/20 17:20:15;;;;;;;7.10;2.90;;;;;;;13.29;63.57;99143.18;226685;1237;139170;-58
2022/09/20 17:25:18;;;;;;;7.30;4.80;;;;;;;13.28;63.60;99149.54;227562;1233;140566;-56
2022/09/20 17:30:22;;;;;;;8.20;4.30;;;;;;;13.24;63.85;99150.83;226719;1241;138799;-58
2022/09/20 17:35:27;;;;;;;6.30;3.70;;;;;;;13.21;63.85;99151.41;227509;1226;138855;-57
2022/09/20 17:40:30;;;;;;;9.80;4.40;;;;;;;13.14;63.94;99161.70;226761;1236;139926;-58
2022/09/20 17:45:33;;;;;;;8.20;4.30;;;;;;;13.08;64.16;99163.55;226377;1230;139300;-57
2022/09/20 17:50:36;;;;;;;10.50;4.30;;;;;;;13.04;64.15;99170.23;225648;1234;138320;-57
2022/09/20 17:55:39;;;;;;;8.30;3.70;;;;;;;13.01;64.32;99166.50;226543;1248;140160;-58
2022/09/20 18:00:42;;;;;;;7.40;3.60;;;;;;;13.02;64.46;99171.44;225953;1233;140006;-57
2022/09/20 18:05:45;;;;;;;8.70;3.60;;;;;;;13.01;64.63;99178.80;227556;1233;139098;-57
2022/09/20 18:10:57;;;;;;;8.30;3.80;;;;;;;13.00;64.55;99181.18;226505;1237;138911;-58
2022/09/20 18:16:01;;;;;;;6.80;3.50;;;;;;;12.98;64.67;99189.67;227423;1234;138777;-60
2022/09/20 18:21:18;;;;;;;7.70;4.10;;;;;;;12.98;65.09;99188.48;226535;1240;139561;-59
2022/09/20 18:26:24;;;;;;;9.00;4.10;;;;;;;12.98;65.03;99193.41;226455;1241;138618;-55
2022/09/20 18:31:34;;;;;;;5.80;4.00;;;;;;;12.96;64.85;99196.27;226369;1233;138796;-56
2022/09/20 18:36:38;;;;;;;6.80;4.30;;;;;;;12.91;64.70;99203.90;227608;1239;138865;-56
2022/09/20 18:41:42;;;;;;;5.90;3.60;;;;;;;12.85;64.94;99210.52;226601;1241;139434;-55
2022/09/20 18:46:46;;;;;;;10.40;4.60;;;;;;;12.85;64.80;99218.02;226580;1240;139951;-57
2022/09/20 18:51:49;;;;;;;6.40;3.90;;;;;;;12.85;64.96;99224.81;226545;1240;139711;-58
2022/09/20 18:56:53;;;;;;;8.90;4.30;;;;;;;12.81;65.01;99229.16;226658;1241;139202;-56
2022/09/20 19:02:11;;;;;;;9.00;4.40;;;;;;;12.76;64.95;99235.36;226733;1241;138528;-58
2022/09/20 19:07:26;;;;;;;7.80;4.40;;;;;;;12.71;64.95;99235.85;226321;1243;139039;-56
2022/09/20 19:13:01;;;;;;;6.70;4.70;;;;;;;12.66;65.13;99236.08;226727;1236;139693;-58
2022/09/20 19:18:04;;;;;;;7.40;4.40;;;;;;;12.57;64.78;99236.45;226672;1240;138930;-58
2022/09/20 19:23:33;;;;;;;7.60;4.20;;;;;;;12.51;65.18;99236.83;226503;1234;140544;-56
2022/09/20 19:28:36;;;;;;;11.20;5.60;;;;;;;12.49;65.31;99241.98;226553;1241;139582;-57
2022/09/20 19:33:39;;;;;;;8.40;4.70;;;;;;;12.49;65.36;99242.71;226479;1241;139685;-57
2022/09/20 19:38:50;;;;;;;7.90;4.50;;;;;;;12.49;65.38;99243.05;227565;1233;139718;-56
2022/09/20 19:44:20;;;;;;;11.00;4.90;;;;;;;12.46;65.62;99241.13;226571;1241;141066;-55
2022/09/20 19:49:49;;;;;;;8.90;5.20;;;;;;;12.41;65.70;99240.38;226667;1240;139256;-55
2022/09/20 19:54:52;;;;;;;8.50;5.00;;;;;;;12.38;65.61;99244.52;227463;1233;139766;-58
2022/09/20 19:59:56;;;;;;;8.20;5.30;;;;;;;12.29;65.51;99250.08;226491;1248;138789;-58
2022/09/20 20:05:00;;;;;;;10.70;5.60;;;;;;;12.22;65.77;99250.91;226986;1237;140351;-57
2022/09/20 20:10:17;;;;;;;10.80;6.20;;;;;;;12.21;66.15;99255.38;227363;1236;140579;-56
2022/09/20 20:15:46;;;;;;;10.00;5.90;;;;;;;12.25;66.10;99259.77;227478;1236;139607;-57
2022/09/20 20:20:52;;;;;;;11.40;7.00;;;;;;;12.25;66.16;99261.02;227563;1241;138982;-58
2022/09/20 20:26:01;;;;;;;13.10;7.10;;;;;;;12.22;66.37;99262.48;226585;1235;139126;-55
2022/09/20 20:31:05;;;;;;;11.60;6.70;;;;;;;12.19;66.39;99266.96;226509;1241;139221;-56
2022/09/20 20:36:10;;;;;;;14.70;7.90;;;;;;;12.12;66.82;99270.39;226510;1242;139753;-57
2022/09/20 20:41:17;;;;;;;13.90;7.80;;;;;;;12.07;66.70;99272.52;226428;1240;138969;-56
2022/09/20 20:46:20;;;;;;;15.40;8.50;;;;;;;12.00;66.89;99273.31;226690;1241;138962;-59
2022/09/20 20:51:24;;;;;;;14.90;8.50;;;;;;;11.98;67.15;99271.30;227362;1234;139733;-57
2022/09/20 20:56:29;;;;;;;17.50;8.70;;;;;;;11.99;67.32;99276.20;226707;1241;139165;-59
2022/09/20 21:01:34;;;;;;;12.00;7.60;;;;;;;12.02;67.41;99274.44;226751;1241;139661;-60
2022/09/20 21:06:39;;;;;;;13.50;8.90;;;;;;;12.03;67.48;99269.00;226508;1241;139565;-60
2022/09/20 21:11:43;;;;;;;14.00;8.90;;;;;;;11.99;67.53;99270.17;226399;1238;139157;-59
2022/09/20 21:16:46;;;;;;;18.40;9.40;;;;;;;11.90;67.42;99271.26;225966;1237;138942;-58
2022/09/20 21:21:49;;;;;;;18.00;9.50;;;;;;;11.86;67.61;99267.83;226550;1248;139238;-57
2022/09/20 21:26:52;;;;;;;17.70;8.60;;;;;;;11.86;67.84;99269.20;226608;1239;139879;-58
2022/09/20 21:31:55;;;;;;;13.40;8.70;;;;;;;11.89;67.81;99269.73;226866;1247;140032;-58
2022/09/20 21:36:58;;;;;;;19.60;10.00;;;;;;;11.87;68.16;99272.52;227531;1237;139100;-57
2022/09/20 21:42:03;;;;;;;15.90;9.70;;;;;;;11.88;68.06;99276.39;227523;1234;138914;-58
2022/09/20 21:47:06;;;;;;;19.70;9.60;;;;;;;11.92;68.08;99281.29;226398;1233;139531;-58
2022/09/20 21:52:09;;;;;;;20.10;12.10;;;;;;;11.90;68.13;99279.78;226898;1241;140741;-58
2022/09/20 21:57:12;;;;;;;15.70;9.80;;;;;;;11.86;68.16;99280.23;226599;1240;139798;-59
2022/09/20 22:02:16;;;;;;;17.00;9.50;;;;;;;11.83;68.24;99285.02;226469;1238;140042;-58
2022/09/20 22:07:19;;;;;;;17.10;9.90;;;;;;;11.83;68.55;99287.52;226525;1241;139423;-57
2022/09/20 22:12:22;;;;;;;16.90;9.70;;;;;;;11.83;68.45;99283.39;227387;1235;140221;-57
2022/09/20 22:17:28;;;;;;;18.00;10.00;;;;;;;11.81;68.47;99285.50;226468;1239;139056;-57
2022/09/20 22:22:31;;;;;;;18.50;10.50;;;;;;;11.81;68.44;99286.21;226779;1246;140382;-58
2022/09/20 22:27:34;;;;;;;14.50;9.40;;;;;;;11.78;68.59;99288.91;227515;1235;139504;-57
2022/09/20 22:32:36;;;;;;;17.90;11.30;;;;;;;11.71;68.50;99290.23;226646;1241;139434;-57
2022/09/20 22:37:39;;;;;;;15.10;8.80;;;;;;;11.66;68.65;99290.17;226518;1240;141760;-58
2022/09/20 22:42:42;;;;;;;18.70;9.90;;;;;;;11.67;68.77;99287.81;227512;1240;139443;-58
2022/09/20 22:47:45;;;;;;;17.40;9.20;;;;;;;11.73;68.90;99288.67;226639;1239;139053;-56
2022/09/20 22:52:48;;;;;;;14.10;9.10;;;;;;;11.76;68.90;99287.79;226510;1241;138964;-56
2022/09/20 22:57:51;;;;;;;16.80;10.10;;;;;;;11.72;68.69;99292.29;227515;1227;139201;-56
2022/09/20 23:02:57;;;;;;;15.80;9.40;;;;;;;11.68;68.60;99285.98;226641;1241;139043;-57
2022/09/20 23:08:01;;;;;;;15.40;9.90;;;;;;;11.61;68.54;99286.05;226879;1241;139036;-57
2022/09/20 23:13:04;;;;;;;14.30;8.30;;;;;;;11.57;68.74;99288.23;226532;1241;139656;-56
2022/09/20 23:18:07;;;;;;;14.30;8.90;;;;;;;11.58;68.76;99289.42;226850;1239;140912;-55
2022/09/20 23:23:09;;;;;;;14.00;9.10;;;;;;;11.60;68.99;99291.76;226523;1241;138693;-57
2022/09/20 23:28:12;;;;;;;16.10;8.80;;;;;;;11.60;69.12;99293.02;226920;1247;139985;-56
2022/09/20 23:33:15;;;;;;;13.40;8.90;;;;;;;11.60;68.88;99300.33;227168;1241;138756;-58
2022/09/20 23:38:18;;;;;;;12.60;9.00;;;;;;;11.56;68.68;99299.65;226875;1240;139674;-57
2022/09/20 23:43:21;;;;;;;15.50;8.40;;;;;;;11.52;68.80;99306.47;227599;1234;139542;-56
2022/09/20 23:48:24;;;;;;;12.40;8.20;;;;;;;11.47;68.38;99304.14;226541;1241;139173;-55